sensor_id;sensor_type;location;lat;lon;timestamp;temperature;humidity
28632;DHT22;15818;45.534;5.292;2022-07-05T00:00:03;18.60;99.90
28632;DHT22;15818;45.534;5.292;2022-07-05T00:02:29;18.60;99.90
28632;DHT22;15818;45.534;5.292;2022-07-05T00:04:54;18.50;99.90
28632;DHT22;15818;45.534;5.292;2022-07-05T00:07:20;18.50;99.90
28632;DHT22;15818;45.534;5.292;2022-07-05T00:09:51;18.50;99.90
28632;DHT22;15818;45.534;5.292;2022-07-05T00:12:17;18.50;99.90
28632;DHT22;15818;45.534;5.292;2022-07-05T00:14:43;18.50;99.90
28632;DHT22;15818;45.534;5.292;2022-07-05T00:17:10;18.50;99.90
28632;DHT22;15818;45.534;5.292;2022-07-05T00:19:35;18.50;99.90
28632;DHT22;15818;45.534;5.292;2022-07-05T00:22:01;18.40;99.90
28632;DHT22;15818;45.534;5.292;2022-07-05T00:24:27;18.40;99.90
28632;DHT22;15818;45.534;5.292;2022-07-05T00:26:53;18.40;99.90
28632;DHT22;15818;45.534;5.292;2022-07-05T00:29:18;18.30;99.90
28632;DHT22;15818;45.534;5.292;2022-07-05T00:31:44;18.30;99.90
28632;DHT22;15818;45.534;5.292;2022-07-05T00:34:10;18.40;99.90
28632;DHT22;15818;45.534;5.292;2022-07-05T00:36:35;18.40;99.90
28632;DHT22;15818;45.534;5.292;2022-07-05T00:39:01;18.40;99.90
28632;DHT22;15818;45.534;5.292;2022-07-05T00:41:26;18.30;99.90
28632;DHT22;15818;45.534;5.292;2022-07-05T00:46:18;18.30;99.90
28632;DHT22;15818;45.534;5.292;2022-07-05T00:48:43;18.30;99.90
28632;DHT22;15818;45.534;5.292;2022-07-05T00:51:09;18.30;99.90
28632;DHT22;15818;45.534;5.292;2022-07-05T00:53:35;18.20;99.90
28632;DHT22;15818;45.534;5.292;2022-07-05T00:56:01;18.20;99.90
28632;DHT22;15818;45.534;5.292;2022-07-05T00:58:26;18.20;99.90
28632;DHT22;15818;45.534;5.292;2022-07-05T01:00:52;18.20;99.90
28632;DHT22;15818;45.534;5.292;2022-07-05T01:03:18;18.20;99.90
28632;DHT22;15818;45.534;5.292;2022-07-05T01:05:44;18.20;99.90
28632;DHT22;15818;45.534;5.292;2022-07-05T01:08:09;18.10;99.90
28632;DHT22;15818;45.534;5.292;2022-07-05T01:10:36;18.10;99.90
28632;DHT22;15818;45.534;5.292;2022-07-05T01:13:02;18.10;99.90
28632;DHT22;15818;45.534;5.292;2022-07-05T01:15:27;18.10;99.90
28632;DHT22;15818;45.534;5.292;2022-07-05T01:17:53;18.00;99.90
28632;DHT22;15818;45.534;5.292;2022-07-05T01:20:19;18.00;99.90
28632;DHT22;15818;45.534;5.292;2022-07-05T01:22:55;18.00;99.90
28632;DHT22;15818;45.534;5.292;2022-07-05T01:25:21;17.90;99.90
28632;DHT22;15818;45.534;5.292;2022-07-05T01:27:47;17.90;99.90
28632;DHT22;15818;45.534;5.292;2022-07-05T01:30:14;18.00;99.90
28632;DHT22;15818;45.534;5.292;2022-07-05T01:32:39;18.00;99.90
28632;DHT22;15818;45.534;5.292;2022-07-05T01:35:05;18.00;99.90
28632;DHT22;15818;45.534;5.292;2022-07-05T01:37:32;18.00;99.90
28632;DHT22;15818;45.534;5.292;2022-07-05T01:39:58;18.00;99.90
28632;DHT22;15818;45.534;5.292;2022-07-05T01:42:24;18.00;99.90
28632;DHT22;15818;45.534;5.292;2022-07-05T01:44:49;17.90;99.90
28632;DHT22;15818;45.534;5.292;2022-07-05T01:47:15;17.90;99.90
28632;DHT22;15818;45.534;5.292;2022-07-05T01:49:43;17.80;99.90
28632;DHT22;15818;45.534;5.292;2022-07-05T01:52:10;17.90;99.90
28632;DHT22;15818;45.534;5.292;2022-07-05T01:54:36;17.90;99.90
28632;DHT22;15818;45.534;5.292;2022-07-05T01:57:03;17.80;99.90
28632;DHT22;15818;45.534;5.292;2022-07-05T01:59:28;17.80;99.90
28632;DHT22;15818;45.534;5.292;2022-07-05T02:01:55;17.80;99.90
28632;DHT22;15818;45.534;5.292;2022-07-05T02:04:20;17.60;99.90
28632;DHT22;15818;45.534;5.292;2022-07-05T02:06:46;17.60;99.90
28632;DHT22;15818;45.534;5.292;2022-07-05T02:09:11;17.60;99.90
28632;DHT22;15818;45.534;5.292;2022-07-05T02:11:37;17.60;99.90
28632;DHT22;15818;45.534;5.292;2022-07-05T02:14:03;17.50;99.90
28632;DHT22;15818;45.534;5.292;2022-07-05T02:16:28;17.50;99.90
28632;DHT22;15818;45.534;5.292;2022-07-05T02:18:54;17.50;99.90
28632;DHT22;15818;45.534;5.292;2022-07-05T02:21:20;17.60;99.90
28632;DHT22;15818;45.534;5.292;2022-07-05T02:23:46;17.50;99.90
28632;DHT22;15818;45.534;5.292;2022-07-05T02:26:11;17.50;99.90
28632;DHT22;15818;45.534;5.292;2022-07-05T02:28:37;17.50;99.90
28632;DHT22;15818;45.534;5.292;2022-07-05T02:31:03;17.50;99.90
28632;DHT22;15818;45.534;5.292;2022-07-05T02:33:28;17.40;99.90
28632;DHT22;15818;45.534;5.292;2022-07-05T02:35:54;17.40;99.90
28632;DHT22;15818;45.534;5.292;2022-07-05T02:38:19;17.40;99.90
28632;DHT22;15818;45.534;5.292;2022-07-05T02:40:45;17.40;99.90
28632;DHT22;15818;45.534;5.292;2022-07-05T02:43:10;17.40;99.90
28632;DHT22;15818;45.534;5.292;2022-07-05T02:45:36;17.40;99.90
28632;DHT22;15818;45.534;5.292;2022-07-05T02:48:01;17.30;99.90
28632;DHT22;15818;45.534;5.292;2022-07-05T02:50:27;17.30;99.90
28632;DHT22;15818;45.534;5.292;2022-07-05T02:52:53;17.30;99.90
28632;DHT22;15818;45.534;5.292;2022-07-05T02:55:18;17.30;99.90
28632;DHT22;15818;45.534;5.292;2022-07-05T02:57:44;17.30;99.90
28632;DHT22;15818;45.534;5.292;2022-07-05T03:00:10;17.30;99.90
28632;DHT22;15818;45.534;5.292;2022-07-05T03:02:35;17.30;99.90
28632;DHT22;15818;45.534;5.292;2022-07-05T03:05:01;17.30;99.90
28632;DHT22;15818;45.534;5.292;2022-07-05T03:07:27;17.20;99.90
28632;DHT22;15818;45.534;5.292;2022-07-05T03:09:52;17.20;99.90
28632;DHT22;15818;45.534;5.292;2022-07-05T03:12:18;17.20;99.90
28632;DHT22;15818;45.534;5.292;2022-07-05T03:14:43;17.10;99.90
28632;DHT22;15818;45.534;5.292;2022-07-05T03:17:09;17.10;99.90
28632;DHT22;15818;45.534;5.292;2022-07-05T03:19:34;17.10;99.90
28632;DHT22;15818;45.534;5.292;2022-07-05T03:22:00;17.10;99.90
28632;DHT22;15818;45.534;5.292;2022-07-05T03:24:25;17.10;99.90
28632;DHT22;15818;45.534;5.292;2022-07-05T03:26:51;17.10;99.90
28632;DHT22;15818;45.534;5.292;2022-07-05T03:29:17;17.10;99.90
28632;DHT22;15818;45.534;5.292;2022-07-05T03:31:42;17.10;99.90
28632;DHT22;15818;45.534;5.292;2022-07-05T03:34:08;17.10;99.90
28632;DHT22;15818;45.534;5.292;2022-07-05T03:36:34;17.20;99.90
28632;DHT22;15818;45.534;5.292;2022-07-05T03:38:59;17.20;99.90
28632;DHT22;15818;45.534;5.292;2022-07-05T03:41:25;17.10;99.90
28632;DHT22;15818;45.534;5.292;2022-07-05T03:43:50;17.10;99.90
28632;DHT22;15818;45.534;5.292;2022-07-05T03:46:16;17.10;99.90
28632;DHT22;15818;45.534;5.292;2022-07-05T03:48:41;17.00;99.90
28632;DHT22;15818;45.534;5.292;2022-07-05T03:51:07;17.00;99.90
28632;DHT22;15818;45.534;5.292;2022-07-05T03:53:33;17.00;99.90
28632;DHT22;15818;45.534;5.292;2022-07-05T03:55:58;17.00;99.90
28632;DHT22;15818;45.534;5.292;2022-07-05T03:58:24;17.00;99.90
28632;DHT22;15818;45.534;5.292;2022-07-05T04:00:49;17.00;99.90
28632;DHT22;15818;45.534;5.292;2022-07-05T04:03:15;17.00;99.90
28632;DHT22;15818;45.534;5.292;2022-07-05T04:05:40;17.00;99.90
28632;DHT22;15818;45.534;5.292;2022-07-05T04:08:06;17.00;99.90
28632;DHT22;15818;45.534;5.292;2022-07-05T04:10:32;17.00;99.90
28632;DHT22;15818;45.534;5.292;2022-07-05T04:12:58;16.90;99.90
28632;DHT22;15818;45.534;5.292;2022-07-05T04:15:23;16.90;99.90
28632;DHT22;15818;45.534;5.292;2022-07-05T04:17:50;17.00;99.90
28632;DHT22;15818;45.534;5.292;2022-07-05T04:20:16;17.00;99.90
28632;DHT22;15818;45.534;5.292;2022-07-05T04:22:42;17.00;99.90
28632;DHT22;15818;45.534;5.292;2022-07-05T04:25:08;16.90;99.90
28632;DHT22;15818;45.534;5.292;2022-07-05T04:27:45;17.00;99.90
28632;DHT22;15818;45.534;5.292;2022-07-05T04:30:11;17.00;99.90
28632;DHT22;15818;45.534;5.292;2022-07-05T04:32:37;17.00;99.90
28632;DHT22;15818;45.534;5.292;2022-07-05T04:35:02;16.90;99.90
28632;DHT22;15818;45.534;5.292;2022-07-05T04:37:28;16.90;99.90
28632;DHT22;15818;45.534;5.292;2022-07-05T04:39:53;16.90;99.90
28632;DHT22;15818;45.534;5.292;2022-07-05T04:42:19;17.00;99.90
28632;DHT22;15818;45.534;5.292;2022-07-05T04:44:45;17.00;99.90
28632;DHT22;15818;45.534;5.292;2022-07-05T04:47:10;17.00;99.90
28632;DHT22;15818;45.534;5.292;2022-07-05T04:49:36;16.90;99.90
28632;DHT22;15818;45.534;5.292;2022-07-05T04:52:01;17.00;99.90
28632;DHT22;15818;45.534;5.292;2022-07-05T04:54:27;17.10;99.90
28632;DHT22;15818;45.534;5.292;2022-07-05T04:56:53;17.10;99.90
28632;DHT22;15818;45.534;5.292;2022-07-05T04:59:18;17.10;99.90
28632;DHT22;15818;45.534;5.292;2022-07-05T05:01:44;17.20;99.90
28632;DHT22;15818;45.534;5.292;2022-07-05T05:04:09;17.30;99.90
28632;DHT22;15818;45.534;5.292;2022-07-05T05:06:35;17.30;99.90
28632;DHT22;15818;45.534;5.292;2022-07-05T05:09:01;17.40;99.90
28632;DHT22;15818;45.534;5.292;2022-07-05T05:11:26;17.50;99.90
28632;DHT22;15818;45.534;5.292;2022-07-05T05:13:52;17.60;99.90
28632;DHT22;15818;45.534;5.292;2022-07-05T05:16:17;17.60;99.90
28632;DHT22;15818;45.534;5.292;2022-07-05T05:18:43;17.60;99.90
28632;DHT22;15818;45.534;5.292;2022-07-05T05:21:08;17.70;99.90
28632;DHT22;15818;45.534;5.292;2022-07-05T05:23:34;17.70;99.90
28632;DHT22;15818;45.534;5.292;2022-07-05T05:25:59;17.70;99.90
28632;DHT22;15818;45.534;5.292;2022-07-05T05:28:25;17.70;99.90
28632;DHT22;15818;45.534;5.292;2022-07-05T05:30:51;17.70;99.90
28632;DHT22;15818;45.534;5.292;2022-07-05T05:33:16;17.80;99.90
28632;DHT22;15818;45.534;5.292;2022-07-05T05:35:42;17.80;99.90
28632;DHT22;15818;45.534;5.292;2022-07-05T05:38:07;17.90;99.90
28632;DHT22;15818;45.534;5.292;2022-07-05T05:40:33;17.90;99.90
28632;DHT22;15818;45.534;5.292;2022-07-05T05:42:59;18.00;99.90
28632;DHT22;15818;45.534;5.292;2022-07-05T05:45:24;18.10;99.90
28632;DHT22;15818;45.534;5.292;2022-07-05T05:47:51;18.40;99.90
28632;DHT22;15818;45.534;5.292;2022-07-05T05:50:18;18.50;99.90
28632;DHT22;15818;45.534;5.292;2022-07-05T05:52:43;18.70;99.90
28632;DHT22;15818;45.534;5.292;2022-07-05T05:55:09;18.90;99.90
28632;DHT22;15818;45.534;5.292;2022-07-05T05:57:35;19.20;99.90
28632;DHT22;15818;45.534;5.292;2022-07-05T06:00:03;19.30;99.90
28632;DHT22;15818;45.534;5.292;2022-07-05T06:02:28;19.60;99.90
28632;DHT22;15818;45.534;5.292;2022-07-05T06:04:54;19.40;99.90
28632;DHT22;15818;45.534;5.292;2022-07-05T06:07:19;19.50;99.90
28632;DHT22;15818;45.534;5.292;2022-07-05T06:09:45;19.60;99.90
28632;DHT22;15818;45.534;5.292;2022-07-05T06:12:10;19.60;99.90
28632;DHT22;15818;45.534;5.292;2022-07-05T06:14:36;19.90;99.90
28632;DHT22;15818;45.534;5.292;2022-07-05T06:17:02;19.90;99.90
28632;DHT22;15818;45.534;5.292;2022-07-05T06:19:27;19.90;99.90
28632;DHT22;15818;45.534;5.292;2022-07-05T06:21:53;19.90;99.90
28632;DHT22;15818;45.534;5.292;2022-07-05T06:24:18;20.00;99.90
28632;DHT22;15818;45.534;5.292;2022-07-05T06:26:44;19.90;99.90
28632;DHT22;15818;45.534;5.292;2022-07-05T06:29:09;20.10;99.90
28632;DHT22;15818;45.534;5.292;2022-07-05T06:31:35;20.40;99.90
28632;DHT22;15818;45.534;5.292;2022-07-05T06:34:00;20.30;99.90
28632;DHT22;15818;45.534;5.292;2022-07-05T06:36:26;20.30;99.90
28632;DHT22;15818;45.534;5.292;2022-07-05T06:38:51;20.10;99.90
28632;DHT22;15818;45.534;5.292;2022-07-05T06:41:17;19.90;99.90
28632;DHT22;15818;45.534;5.292;2022-07-05T06:43:42;19.90;99.90
28632;DHT22;15818;45.534;5.292;2022-07-05T06:46:08;19.80;99.90
28632;DHT22;15818;45.534;5.292;2022-07-05T06:48:34;20.00;99.90
28632;DHT22;15818;45.534;5.292;2022-07-05T06:50:59;20.00;99.90
28632;DHT22;15818;45.534;5.292;2022-07-05T06:53:25;20.20;99.90
28632;DHT22;15818;45.534;5.292;2022-07-05T06:55:50;20.30;99.90
28632;DHT22;15818;45.534;5.292;2022-07-05T06:58:16;20.30;99.90
28632;DHT22;15818;45.534;5.292;2022-07-05T07:00:42;20.50;99.90
28632;DHT22;15818;45.534;5.292;2022-07-05T07:03:07;20.60;99.90
28632;DHT22;15818;45.534;5.292;2022-07-05T07:05:33;20.50;99.90
28632;DHT22;15818;45.534;5.292;2022-07-05T07:07:59;20.50;99.90
28632;DHT22;15818;45.534;5.292;2022-07-05T07:10:43;20.70;99.90
28632;DHT22;15818;45.534;5.292;2022-07-05T07:13:08;20.60;99.90
28632;DHT22;15818;45.534;5.292;2022-07-05T07:15:34;20.70;99.90
28632;DHT22;15818;45.534;5.292;2022-07-05T07:17:59;20.80;99.90
28632;DHT22;15818;45.534;5.292;2022-07-05T07:20:25;20.80;99.90
28632;DHT22;15818;45.534;5.292;2022-07-05T07:22:51;20.80;99.90
28632;DHT22;15818;45.534;5.292;2022-07-05T07:25:17;20.90;99.90
28632;DHT22;15818;45.534;5.292;2022-07-05T07:27:46;20.80;99.90
28632;DHT22;15818;45.534;5.292;2022-07-05T07:30:12;20.80;99.90
28632;DHT22;15818;45.534;5.292;2022-07-05T07:32:38;20.90;99.90
28632;DHT22;15818;45.534;5.292;2022-07-05T07:35:04;20.90;99.90
28632;DHT22;15818;45.534;5.292;2022-07-05T07:37:30;21.00;99.90
28632;DHT22;15818;45.534;5.292;2022-07-05T07:39:55;21.10;99.90
28632;DHT22;15818;45.534;5.292;2022-07-05T07:42:21;21.30;99.90
28632;DHT22;15818;45.534;5.292;2022-07-05T07:44:46;21.30;99.90
28632;DHT22;15818;45.534;5.292;2022-07-05T07:47:12;21.10;99.90
28632;DHT22;15818;45.534;5.292;2022-07-05T07:49:38;21.10;99.90
28632;DHT22;15818;45.534;5.292;2022-07-05T07:52:03;21.30;99.90
28632;DHT22;15818;45.534;5.292;2022-07-05T07:54:29;21.40;99.90
28632;DHT22;15818;45.534;5.292;2022-07-05T07:56:55;21.30;99.90
28632;DHT22;15818;45.534;5.292;2022-07-05T07:59:20;21.00;99.90
28632;DHT22;15818;45.534;5.292;2022-07-05T08:01:46;21.20;99.90
28632;DHT22;15818;45.534;5.292;2022-07-05T08:04:12;21.40;99.90
28632;DHT22;15818;45.534;5.292;2022-07-05T08:06:38;21.40;99.90
28632;DHT22;15818;45.534;5.292;2022-07-05T08:09:04;21.40;99.90
28632;DHT22;15818;45.534;5.292;2022-07-05T08:11:29;21.60;99.90
28632;DHT22;15818;45.534;5.292;2022-07-05T08:13:55;21.60;99.90
28632;DHT22;15818;45.534;5.292;2022-07-05T08:16:21;21.60;99.90
28632;DHT22;15818;45.534;5.292;2022-07-05T08:18:46;21.70;99.90
28632;DHT22;15818;45.534;5.292;2022-07-05T08:21:30;21.80;99.90
28632;DHT22;15818;45.534;5.292;2022-07-05T08:23:58;21.60;99.90
28632;DHT22;15818;45.534;5.292;2022-07-05T08:26:25;21.60;99.90
28632;DHT22;15818;45.534;5.292;2022-07-05T08:28:51;21.80;99.90
28632;DHT22;15818;45.534;5.292;2022-07-05T08:31:16;22.00;99.90
28632;DHT22;15818;45.534;5.292;2022-07-05T08:33:42;22.10;99.90
28632;DHT22;15818;45.534;5.292;2022-07-05T08:36:07;22.30;99.90
28632;DHT22;15818;45.534;5.292;2022-07-05T08:38:33;22.40;99.90
28632;DHT22;15818;45.534;5.292;2022-07-05T08:40:59;22.40;99.90
28632;DHT22;15818;45.534;5.292;2022-07-05T08:43:26;22.40;99.90
28632;DHT22;15818;45.534;5.292;2022-07-05T08:45:53;22.40;99.90
28632;DHT22;15818;45.534;5.292;2022-07-05T08:48:19;22.50;99.90
28632;DHT22;15818;45.534;5.292;2022-07-05T08:50:45;22.60;99.90
28632;DHT22;15818;45.534;5.292;2022-07-05T08:53:13;22.80;99.90
28632;DHT22;15818;45.534;5.292;2022-07-05T08:55:39;22.80;99.90
28632;DHT22;15818;45.534;5.292;2022-07-05T08:58:05;22.90;99.90
28632;DHT22;15818;45.534;5.292;2022-07-05T09:00:31;23.10;99.90
28632;DHT22;15818;45.534;5.292;2022-07-05T09:02:57;22.80;99.90
28632;DHT22;15818;45.534;5.292;2022-07-05T09:05:22;22.90;99.90
28632;DHT22;15818;45.534;5.292;2022-07-05T09:07:55;23.00;99.90
28632;DHT22;15818;45.534;5.292;2022-07-05T09:10:25;23.20;99.90
28632;DHT22;15818;45.534;5.292;2022-07-05T09:12:51;23.40;99.90
28632;DHT22;15818;45.534;5.292;2022-07-05T09:15:16;23.50;99.90
28632;DHT22;15818;45.534;5.292;2022-07-05T09:17:43;23.40;99.90
28632;DHT22;15818;45.534;5.292;2022-07-05T09:20:12;23.50;99.90
28632;DHT22;15818;45.534;5.292;2022-07-05T09:22:42;23.70;99.90
28632;DHT22;15818;45.534;5.292;2022-07-05T09:25:14;23.80;99.90
28632;DHT22;15818;45.534;5.292;2022-07-05T09:27:50;23.80;99.90
28632;DHT22;15818;45.534;5.292;2022-07-05T09:30:37;23.90;99.90
28632;DHT22;15818;45.534;5.292;2022-07-05T09:35:32;24.10;99.90
28632;DHT22;15818;45.534;5.292;2022-07-05T09:37:57;24.20;99.90
28632;DHT22;15818;45.534;5.292;2022-07-05T09:40:23;24.30;99.90
28632;DHT22;15818;45.534;5.292;2022-07-05T09:42:49;24.20;99.90
28632;DHT22;15818;45.534;5.292;2022-07-05T09:45:21;24.50;99.90
28632;DHT22;15818;45.534;5.292;2022-07-05T09:47:47;24.70;99.90
28632;DHT22;15818;45.534;5.292;2022-07-05T09:50:13;25.10;99.90
28632;DHT22;15818;45.534;5.292;2022-07-05T09:52:39;25.30;99.90
28632;DHT22;15818;45.534;5.292;2022-07-05T09:55:06;25.10;99.90
28632;DHT22;15818;45.534;5.292;2022-07-05T09:57:33;25.00;99.90
28632;DHT22;15818;45.534;5.292;2022-07-05T10:02:42;25.10;99.90
28632;DHT22;15818;45.534;5.292;2022-07-05T10:07:56;25.50;99.90
28632;DHT22;15818;45.534;5.292;2022-07-05T10:10:25;25.60;99.90
28632;DHT22;15818;45.534;5.292;2022-07-05T10:12:51;26.20;99.90
28632;DHT22;15818;45.534;5.292;2022-07-05T10:15:18;26.60;99.90
28632;DHT22;15818;45.534;5.292;2022-07-05T10:17:45;26.70;99.90
28632;DHT22;15818;45.534;5.292;2022-07-05T10:20:16;26.50;99.90
28632;DHT22;15818;45.534;5.292;2022-07-05T10:22:43;26.70;99.90
28632;DHT22;15818;45.534;5.292;2022-07-05T10:25:09;26.90;99.90
28632;DHT22;15818;45.534;5.292;2022-07-05T10:27:36;27.30;99.90
28632;DHT22;15818;45.534;5.292;2022-07-05T10:30:01;27.30;99.90
28632;DHT22;15818;45.534;5.292;2022-07-05T10:32:28;27.00;99.90
28632;DHT22;15818;45.534;5.292;2022-07-05T10:34:53;26.70;99.90
28632;DHT22;15818;45.534;5.292;2022-07-05T10:37:21;27.00;99.90
28632;DHT22;15818;45.534;5.292;2022-07-05T10:39:47;27.10;99.90
28632;DHT22;15818;45.534;5.292;2022-07-05T10:42:13;27.50;99.90
28632;DHT22;15818;45.534;5.292;2022-07-05T10:44:39;28.10;99.90
28632;DHT22;15818;45.534;5.292;2022-07-05T10:47:08;28.60;99.90
28632;DHT22;15818;45.534;5.292;2022-07-05T10:49:37;28.90;99.90
28632;DHT22;15818;45.534;5.292;2022-07-05T10:52:04;29.10;99.90
28632;DHT22;15818;45.534;5.292;2022-07-05T10:54:30;29.30;99.90
28632;DHT22;15818;45.534;5.292;2022-07-05T10:57:42;29.40;99.90
28632;DHT22;15818;45.534;5.292;2022-07-05T11:02:26;29.40;99.90
28632;DHT22;15818;45.534;5.292;2022-07-05T11:04:55;29.30;99.90
28632;DHT22;15818;45.534;5.292;2022-07-05T11:10:05;29.20;99.90
28632;DHT22;15818;45.534;5.292;2022-07-05T11:12:35;29.30;99.90
28632;DHT22;15818;45.534;5.292;2022-07-05T11:15:04;28.70;99.90
28632;DHT22;15818;45.534;5.292;2022-07-05T11:17:31;28.70;99.90
28632;DHT22;15818;45.534;5.292;2022-07-05T11:22:23;28.60;99.90
28632;DHT22;15818;45.534;5.292;2022-07-05T11:24:49;28.50;99.90
28632;DHT22;15818;45.534;5.292;2022-07-05T11:27:14;28.30;99.90
28632;DHT22;15818;45.534;5.292;2022-07-05T11:29:43;28.80;99.90
28632;DHT22;15818;45.534;5.292;2022-07-05T11:32:16;29.10;99.90
28632;DHT22;15818;45.534;5.292;2022-07-05T11:34:43;28.70;99.90
28632;DHT22;15818;45.534;5.292;2022-07-05T11:39:41;28.60;99.90
28632;DHT22;15818;45.534;5.292;2022-07-05T11:42:09;28.50;99.90
28632;DHT22;15818;45.534;5.292;2022-07-05T11:44:36;28.60;99.90
28632;DHT22;15818;45.534;5.292;2022-07-05T11:47:02;29.10;99.90
28632;DHT22;15818;45.534;5.292;2022-07-05T11:49:29;30.00;99.90
28632;DHT22;15818;45.534;5.292;2022-07-05T11:54:24;30.50;99.90
28632;DHT22;15818;45.534;5.292;2022-07-05T11:56:50;30.10;99.90
28632;DHT22;15818;45.534;5.292;2022-07-05T11:59:18;29.60;99.90
28632;DHT22;15818;45.534;5.292;2022-07-05T12:01:44;30.30;99.90
28632;DHT22;15818;45.534;5.292;2022-07-05T12:04:09;30.20;99.90
28632;DHT22;15818;45.534;5.292;2022-07-05T12:06:41;29.70;99.90
28632;DHT22;15818;45.534;5.292;2022-07-05T12:09:07;29.40;99.90
28632;DHT22;15818;45.534;5.292;2022-07-05T12:11:32;29.30;99.90
28632;DHT22;15818;45.534;5.292;2022-07-05T12:14:23;29.30;99.90
28632;DHT22;15818;45.534;5.292;2022-07-05T12:16:49;29.40;99.90
28632;DHT22;15818;45.534;5.292;2022-07-05T12:19:23;30.30;99.90
28632;DHT22;15818;45.534;5.292;2022-07-05T12:21:53;30.50;99.90
28632;DHT22;15818;45.534;5.292;2022-07-05T12:24:19;30.60;99.90
28632;DHT22;15818;45.534;5.292;2022-07-05T12:26:44;30.60;99.90
28632;DHT22;15818;45.534;5.292;2022-07-05T12:29:10;30.60;99.90
28632;DHT22;15818;45.534;5.292;2022-07-05T12:31:36;30.70;99.90
28632;DHT22;15818;45.534;5.292;2022-07-05T12:34:16;30.60;99.90
28632;DHT22;15818;45.534;5.292;2022-07-05T12:36:43;30.50;99.90
28632;DHT22;15818;45.534;5.292;2022-07-05T12:39:08;30.40;99.90
28632;DHT22;15818;45.534;5.292;2022-07-05T12:41:34;30.30;99.90
28632;DHT22;15818;45.534;5.292;2022-07-05T12:44:07;29.70;99.90
28632;DHT22;15818;45.534;5.292;2022-07-05T12:46:36;29.70;99.90
28632;DHT22;15818;45.534;5.292;2022-07-05T12:49:02;29.50;99.90
28632;DHT22;15818;45.534;5.292;2022-07-05T12:51:35;29.40;99.90
28632;DHT22;15818;45.534;5.292;2022-07-05T15:11:25;26.70;99.90
28632;DHT22;15818;45.534;5.292;2022-07-05T15:13:51;26.40;99.90
28632;DHT22;15818;45.534;5.292;2022-07-05T15:16:17;26.40;99.90
28632;DHT22;15818;45.534;5.292;2022-07-05T15:18:43;26.50;99.90
28632;DHT22;15818;45.534;5.292;2022-07-05T15:21:08;26.60;99.90
28632;DHT22;15818;45.534;5.292;2022-07-05T15:23:34;26.50;99.90
28632;DHT22;15818;45.534;5.292;2022-07-05T15:26:00;26.40;99.90
28632;DHT22;15818;45.534;5.292;2022-07-05T15:28:26;26.30;99.90
28632;DHT22;15818;45.534;5.292;2022-07-05T15:30:52;26.10;99.90
28632;DHT22;15818;45.534;5.292;2022-07-05T15:33:19;26.00;99.90
28632;DHT22;15818;45.534;5.292;2022-07-05T15:35:48;26.10;99.90
28632;DHT22;15818;45.534;5.292;2022-07-05T15:38:14;26.20;99.90
28632;DHT22;15818;45.534;5.292;2022-07-05T15:40:40;26.20;99.90
28632;DHT22;15818;45.534;5.292;2022-07-05T15:43:06;26.20;99.90
28632;DHT22;15818;45.534;5.292;2022-07-05T15:45:31;26.10;99.90
28632;DHT22;15818;45.534;5.292;2022-07-05T15:47:57;26.10;99.90
28632;DHT22;15818;45.534;5.292;2022-07-05T15:50:23;26.00;99.90
28632;DHT22;15818;45.534;5.292;2022-07-05T15:52:49;25.90;99.90
28632;DHT22;15818;45.534;5.292;2022-07-05T15:55:14;25.80;99.90
28632;DHT22;15818;45.534;5.292;2022-07-05T15:57:40;25.80;99.90
28632;DHT22;15818;45.534;5.292;2022-07-05T16:00:06;25.90;99.90
28632;DHT22;15818;45.534;5.292;2022-07-05T16:02:32;25.70;99.90
28632;DHT22;15818;45.534;5.292;2022-07-05T16:04:58;25.60;99.90
28632;DHT22;15818;45.534;5.292;2022-07-05T16:07:23;25.50;99.90
28632;DHT22;15818;45.534;5.292;2022-07-05T16:09:49;25.50;99.90
28632;DHT22;15818;45.534;5.292;2022-07-05T16:12:19;25.50;99.90
28632;DHT22;15818;45.534;5.292;2022-07-05T16:14:45;25.50;99.90
28632;DHT22;15818;45.534;5.292;2022-07-05T16:17:11;25.40;99.90
28632;DHT22;15818;45.534;5.292;2022-07-05T16:19:37;25.30;99.90
28632;DHT22;15818;45.534;5.292;2022-07-05T16:22:03;25.40;99.90
28632;DHT22;15818;45.534;5.292;2022-07-05T16:24:29;25.50;99.90
28632;DHT22;15818;45.534;5.292;2022-07-05T16:26:54;25.50;99.90
28632;DHT22;15818;45.534;5.292;2022-07-05T16:29:20;25.50;99.90
28632;DHT22;15818;45.534;5.292;2022-07-05T16:31:46;25.40;99.90
28632;DHT22;15818;45.534;5.292;2022-07-05T16:34:11;25.30;99.90
28632;DHT22;15818;45.534;5.292;2022-07-05T16:36:38;25.20;99.90
28632;DHT22;15818;45.534;5.292;2022-07-05T16:39:04;25.30;99.90
28632;DHT22;15818;45.534;5.292;2022-07-05T16:41:30;25.20;99.90
28632;DHT22;15818;45.534;5.292;2022-07-05T16:43:56;25.10;99.90
28632;DHT22;15818;45.534;5.292;2022-07-05T16:46:22;25.00;99.90
28632;DHT22;15818;45.534;5.292;2022-07-05T16:48:48;24.90;99.90
28632;DHT22;15818;45.534;5.292;2022-07-05T16:51:18;24.80;99.90
28632;DHT22;15818;45.534;5.292;2022-07-05T16:53:47;24.70;99.90
28632;DHT22;15818;45.534;5.292;2022-07-05T16:56:14;24.70;99.90
28632;DHT22;15818;45.534;5.292;2022-07-05T16:58:41;24.60;99.90
28632;DHT22;15818;45.534;5.292;2022-07-05T17:01:09;24.60;99.90
28632;DHT22;15818;45.534;5.292;2022-07-05T17:03:46;24.50;99.90
28632;DHT22;15818;45.534;5.292;2022-07-05T17:06:13;24.60;99.90
28632;DHT22;15818;45.534;5.292;2022-07-05T17:08:41;24.60;99.90
28632;DHT22;15818;45.534;5.292;2022-07-05T17:11:11;24.60;99.90
28632;DHT22;15818;45.534;5.292;2022-07-05T17:13:42;24.50;99.90
28632;DHT22;15818;45.534;5.292;2022-07-05T17:16:10;24.40;99.90
28632;DHT22;15818;45.534;5.292;2022-07-05T17:18:38;24.30;99.90
28632;DHT22;15818;45.534;5.292;2022-07-05T17:21:05;24.20;99.90
28632;DHT22;15818;45.534;5.292;2022-07-05T17:23:33;24.10;99.90
28632;DHT22;15818;45.534;5.292;2022-07-05T17:25:59;24.10;99.90
28632;DHT22;15818;45.534;5.292;2022-07-05T17:28:25;24.00;99.90
28632;DHT22;15818;45.534;5.292;2022-07-05T17:30:51;23.90;99.90
28632;DHT22;15818;45.534;5.292;2022-07-05T17:33:16;23.90;99.90
28632;DHT22;15818;45.534;5.292;2022-07-05T17:35:42;23.70;99.90
28632;DHT22;15818;45.534;5.292;2022-07-05T17:38:08;23.70;99.90
28632;DHT22;15818;45.534;5.292;2022-07-05T17:40:34;23.70;99.90
28632;DHT22;15818;45.534;5.292;2022-07-05T17:43:00;23.70;99.90
28632;DHT22;15818;45.534;5.292;2022-07-05T17:45:26;23.80;99.90
28632;DHT22;15818;45.534;5.292;2022-07-05T17:47:51;23.80;99.90
28632;DHT22;15818;45.534;5.292;2022-07-05T17:50:17;23.60;99.90
28632;DHT22;15818;45.534;5.292;2022-07-05T17:52:43;23.60;99.90
28632;DHT22;15818;45.534;5.292;2022-07-05T17:55:08;23.50;99.90
28632;DHT22;15818;45.534;5.292;2022-07-05T17:57:34;23.40;99.90
28632;DHT22;15818;45.534;5.292;2022-07-05T18:00:00;23.50;99.90
28632;DHT22;15818;45.534;5.292;2022-07-05T18:02:26;23.40;99.90
28632;DHT22;15818;45.534;5.292;2022-07-05T18:04:51;23.30;99.90